Time;durP1;ratioP1;P1;durP2;ratioP2;P2;SDS_P1;SDS_P2;PMS_P1;PMS_P2;Temp;Humidity;BMP_temperature;BMP_pressure;BME280_temperature;BME280_humidity;BME280_pressure;Samples;Min_cycle;Max_cycle;Signal;HPM_P1;HPM_P2
2024/04/02 08:58:33;;;;;;;1.25;1.15;;;;;;;;;;6215924;23;20008;-87
2024/04/02 09:01:03;;;;;;;1.40;1.30;;;;;;;;;;6190397;23;20023;-89
2024/04/02 09:03:29;;;;;;;1.30;1.30;;;;;;;;;;6217251;23;20009;-88
2024/04/02 09:05:57;;;;;;;2.88;2.15;;;;;;;;;;6217023;23;20012;-88
2024/04/02 09:08:23;;;;;;;2.72;2.15;;;;;;;;;;6217083;23;20332;-88
2024/04/02 09:10:48;;;;;;;2.33;2.00;;;;;;;;;;6216988;23;20005;-88
2024/04/02 09:13:14;;;;;;;2.10;1.90;;;;;;;;;;6190286;23;20005;-87
2024/04/02 09:15:40;;;;;;;2.50;1.98;;;;;;;;;;6216605;23;20016;-87
2024/04/02 09:18:06;;;;;;;2.33;1.80;;;;;;;;;;6190336;23;20009;-88
2024/04/02 09:20:36;;;;;;;2.53;2.22;;;;;;;;;;6216929;23;20035;-89
2024/04/02 09:23:01;;;;;;;2.53;1.90;;;;;;;;;;6216828;23;20076;-88
2024/04/02 09:25:27;;;;;;;3.92;2.03;;;;;;;;;;6217144;23;20035;-88
2024/04/02 09:27:54;;;;;;;1.80;1.70;;;;;;;;;;6216741;23;20011;-88
2024/04/02 09:30:22;;;;;;;1.83;1.50;;;;;;;;;;6217069;23;20361;-87
2024/04/02 09:32:49;;;;;;;2.00;1.83;;;;;;;;;;6216583;23;20005;-94
2024/04/02 09:35:32;;;;;;;2.00;1.80;;;;;;;;;;6217359;23;20011;-94
2024/04/02 09:38:00;;;;;;;3.00;2.28;;;;;;;;;;6191694;23;20040;-91
2024/04/02 09:40:28;;;;;;;2.42;2.20;;;;;;;;;;6218614;23;20007;-91
2024/04/02 09:42:56;;;;;;;2.30;2.10;;;;;;;;;;6217903;23;20028;-91
2024/04/02 09:45:22;;;;;;;2.90;1.98;;;;;;;;;;6194948;23;20063;-92
2024/04/02 09:47:50;;;;;;;4.85;2.33;;;;;;;;;;6166889;23;20009;-96
2024/04/02 09:50:16;;;;;;;1.80;1.70;;;;;;;;;;6192287;23;20432;-91
2024/04/02 09:52:42;;;;;;;2.83;1.90;;;;;;;;;;6166663;23;20021;-95
2024/04/02 09:55:09;;;;;;;2.55;1.90;;;;;;;;;;6193533;23;20071;-95
2024/04/02 09:57:36;;;;;;;2.17;1.85;;;;;;;;;;6180809;23;20021;-92
2024/04/02 10:00:02;;;;;;;3.80;1.85;;;;;;;;;;6161434;23;20444;-96
2024/04/02 10:02:33;;;;;;;1.73;1.63;;;;;;;;;;6162272;23;20065;-95
2024/04/02 10:04:58;;;;;;;2.22;1.80;;;;;;;;;;6188302;23;20012;-95
2024/04/02 10:07:33;;;;;;;2.65;1.90;;;;;;;;;;6196071;23;19993;-94
2024/04/02 10:10:06;;;;;;;1.90;1.42;;;;;;;;;;6162060;23;20013;-94
2024/04/02 10:12:33;;;;;;;1.88;1.65;;;;;;;;;;6161816;23;20074;-96
2024/04/02 10:15:09;;;;;;;1.60;1.50;;;;;;;;;;6160930;23;20075;-91
2024/04/02 10:17:35;;;;;;;1.83;1.73;;;;;;;;;;6162271;23;20036;-89
2024/04/02 10:20:04;;;;;;;1.40;1.30;;;;;;;;;;6182496;23;20005;-96
2024/04/02 10:22:31;;;;;;;3.90;1.98;;;;;;;;;;6180829;23;20020;-96
2024/04/02 10:25:12;;;;;;;1.35;1.25;;;;;;;;;;6168522;23;20003;-94
2024/04/02 10:27:43;;;;;;;1.30;1.17;;;;;;;;;;6166361;23;20001;-96
2024/04/02 10:30:24;;;;;;;1.20;1.10;;;;;;;;;;6166792;23;20020;-96
2024/04/02 10:32:51;;;;;;;1.02;1.02;;;;;;;;;;6177238;23;20005;-96
2024/04/02 10:35:20;;;;;;;0.80;0.80;;;;;;;;;;6161643;23;20009;-96
2024/04/02 10:37:47;;;;;;;1.27;1.10;;;;;;;;;;6161108;23;20005;-96
2024/04/02 10:40:13;;;;;;;1.13;1.10;;;;;;;;;;6187761;23;19997;-96
2024/04/02 10:42:39;;;;;;;1.05;1.02;;;;;;;;;;6161370;23;20013;-94
2024/04/02 10:45:08;;;;;;;1.20;1.10;;;;;;;;;;6164048;23;20440;-96
2024/04/02 10:47:36;;;;;;;1.92;1.83;;;;;;;;;;6162665;23;20009;-95
2024/04/02 10:50:02;;;;;;;2.75;1.80;;;;;;;;;;6163212;23;20427;-91
2024/04/02 10:52:34;;;;;;;1.25;1.00;;;;;;;;;;6185776;23;20009;-93
2024/04/02 10:55:00;;;;;;;1.40;1.30;;;;;;;;;;6160538;23;20016;-90
2024/04/02 10:57:26;;;;;;;2.08;1.27;;;;;;;;;;6171254;23;20009;-90
2024/04/02 10:59:52;;;;;;;1.42;1.30;;;;;;;;;;6189686;23;20005;-90
2024/04/02 11:02:19;;;;;;;1.25;1.20;;;;;;;;;;6189760;23;20009;-90
2024/04/02 11:04:47;;;;;;;1.65;1.50;;;;;;;;;;6189346;23;20387;-90
2024/04/02 11:07:13;;;;;;;1.92;1.00;;;;;;;;;;6216171;23;20004;-90
2024/04/02 11:09:45;;;;;;;1.55;1.15;;;;;;;;;;6189378;23;20007;-90
2024/04/02 11:12:11;;;;;;;1.50;1.40;;;;;;;;;;6189566;23;20031;-90
2024/04/02 11:14:36;;;;;;;1.30;1.20;;;;;;;;;;6189391;23;20423;-90
2024/04/02 11:17:03;;;;;;;1.20;1.10;;;;;;;;;;6189421;23;20432;-89
2024/04/02 11:19:29;;;;;;;1.20;1.10;;;;;;;;;;6216056;23;20005;-90
2024/04/02 11:27:26;;;;;;;1.27;1.17;;;;;;;;;;6216067;23;20027;-91
2024/04/02 11:29:53;;;;;;;1.65;1.20;;;;;;;;;;6216001;23;20427;-90
2024/04/02 11:32:20;;;;;;;1.13;0.90;;;;;;;;;;6189530;23;20475;-89
2024/04/02 11:35:09;;;;;;;0.90;0.90;;;;;;;;;;6216357;23;20011;-92
2024/04/02 11:37:35;;;;;;;2.50;1.45;;;;;;;;;;6164981;23;20019;-92
2024/04/02 11:40:01;;;;;;;1.00;0.90;;;;;;;;;;6216504;23;20005;-92
2024/04/02 11:42:29;;;;;;;1.00;0.90;;;;;;;;;;6189868;23;20005;-93
2024/04/02 11:44:57;;;;;;;1.33;1.08;;;;;;;;;;6216363;23;20015;-93
2024/04/02 11:47:24;;;;;;;1.08;0.98;;;;;;;;;;6190537;23;20007;-92
2024/04/02 18:36:43;;;;;;;5.18;1.63;;;;;;;;;;6190059;23;20015;-93
2024/04/02 18:39:08;;;;;;;3.00;1.60;;;;;;;;;;6217083;23;20036;-89
2024/04/02 18:41:34;;;;;;;3.63;1.60;;;;;;;;;;6217364;23;20323;-92
2024/04/02 18:43:59;;;;;;;2.80;2.03;;;;;;;;;;6216918;23;20004;-91
2024/04/02 18:46:26;;;;;;;4.00;3.33;;;;;;;;;;6216019;23;20012;-94
2024/04/02 18:48:53;;;;;;;1.77;1.65;;;;;;;;;;6215762;23;20427;-91
2024/04/02 18:51:21;;;;;;;79.22;34.17;;;;;;;;;;6216855;23;20055;-93
2024/04/02 18:53:47;;;;;;;50.53;18.42;;;;;;;;;;6217267;23;20016;-91
2024/04/02 18:56:14;;;;;;;7.68;3.45;;;;;;;;;;6217743;23;20008;-92
2024/04/02 18:58:40;;;;;;;7.18;4.35;;;;;;;;;;6215616;23;20017;-90
2024/04/02 19:01:06;;;;;;;9.27;5.38;;;;;;;;;;6217228;23;20443;-92
2024/04/02 19:03:32;;;;;;;13.00;7.85;;;;;;;;;;6216997;23;20004;-91
2024/04/02 19:06:09;;;;;;;23.85;15.65;;;;;;;;;;6216721;23;19996;-89
2024/04/02 19:08:35;;;;;;;8.10;5.32;;;;;;;;;;6190691;23;20015;-95
2024/04/02 19:11:04;;;;;;;2.88;2.10;;;;;;;;;;6191095;23;20032;-92
2024/04/02 19:13:29;;;;;;;4.13;2.60;;;;;;;;;;6217214;23;19997;-92
2024/04/02 19:16:13;;;;;;;2.60;2.00;;;;;;;;;;6218528;23;20009;-92
2024/04/02 19:18:40;;;;;;;3.38;1.90;;;;;;;;;;6220307;23;20304;-93
2024/04/02 19:21:05;;;;;;;2.53;2.00;;;;;;;;;;6217670;23;20001;-92
2024/04/02 19:23:32;;;;;;;3.47;1.98;;;;;;;;;;6218167;23;20035;-92
2024/04/02 19:25:59;;;;;;;2.85;1.70;;;;;;;;;;6219572;23;20008;-95
2024/04/02 19:28:28;;;;;;;6.15;3.00;;;;;;;;;;6215669;23;20004;-94
2024/04/02 19:30:56;;;;;;;4.10;2.95;;;;;;;;;;6215468;23;20008;-95
2024/04/02 19:33:22;;;;;;;2.50;2.30;;;;;;;;;;6215707;23;20001;-93
2024/04/02 19:35:56;;;;;;;5.32;2.10;;;;;;;;;;6230242;23;20032;-93
2024/04/02 19:38:26;;;;;;;2.28;1.55;;;;;;;;;;6240724;23;20004;-93
2024/04/02 19:41:04;;;;;;;4.53;3.65;;;;;;;;;;6266177;23;20000;-93
2024/04/02 19:43:31;;;;;;;23.65;14.88;;;;;;;;;;6238519;23;20104;-94
2024/04/02 19:46:08;;;;;;;11.10;8.02;;;;;;;;;;6245549;23;20016;-93
2024/04/02 19:48:34;;;;;;;14.93;10.00;;;;;;;;;;6244309;23;19999;-91
2024/04/02 19:51:05;;;;;;;5.30;4.20;;;;;;;;;;6246968;23;20000;-94
2024/04/02 19:53:39;;;;;;;185.32;110.88;;;;;;;;;;6242214;23;20028;-92
2024/04/02 19:56:13;;;;;;;112.65;62.95;;;;;;;;;;6243368;23;20012;-91
2024/04/02 19:58:38;;;;;;;;;;;;;;;;;;6254078;23;20004;-94
2024/04/02 20:01:10;;;;;;;;;;;;;;;;;;6250735;23;19914;-94
2024/04/02 20:03:36;;;;;;;;;;;;;;;;;;6224839;23;19939;-93
2024/04/02 20:06:02;;;;;;;;;;;;;;;;;;6223113;23;19908;-93
2024/04/02 20:08:28;;;;;;;;;;;;;;;;;;6198591;23;19919;-92
2024/04/02 20:10:54;;;;;;;;;;;;;;;;;;6249212;23;19969;-93
2024/04/02 20:13:19;;;;;;;;;;;;;;;;;;6223234;23;19911;-95
2024/04/02 20:15:44;;;;;;;;;;;;;;;;;;6249321;23;19961;-93
2024/04/02 20:18:10;;;;;;;;;;;;;;;;;;6222658;23;19908;-95
2024/04/02 20:20:39;;;;;;;;;;;;;;;;;;6249705;23;19908;-95
2024/04/02 20:23:05;;;;;;;;;;;;;;;;;;6222938;23;20338;-92
2024/04/02 20:25:30;;;;;;;;;;;;;;;;;;6222849;23;19907;-92
2024/04/02 20:27:55;;;;;;;;;;;;;;;;;;6249435;23;20285;-92
2024/04/02 20:30:21;;;;;;;;;;;;;;;;;;6223164;23;19908;-91
2024/04/02 20:32:47;;;;;;;;;;;;;;;;;;6222502;23;20295;-91
2024/04/02 20:35:13;;;;;;;;;;;;;;;;;;6222252;23;19947;-91
2024/04/02 20:37:38;;;;;;;;;;;;;;;;;;6222529;23;19914;-93
2024/04/02 20:40:04;;;;;;;;;;;;;;;;;;6222431;23;19903;-94
2024/04/02 20:42:29;;;;;;;;;;;;;;;;;;6222198;23;19915;-94
2024/04/02 20:44:55;;;;;;;;;;;;;;;;;;6222661;23;19908;-91
2024/04/02 20:47:21;;;;;;;;;;;;;;;;;;6248849;23;19903;-92
2024/04/02 20:49:47;;;;;;;;;;;;;;;;;;6249267;23;19907;-92
2024/04/02 20:52:13;;;;;;;;;;;;;;;;;;6248848;23;19903;-93
2024/04/02 20:54:38;;;;;;;;;;;;;;;;;;6248839;23;20010;-91
2024/04/02 20:57:04;;;;;;;;;;;;;;;;;;6248833;23;19953;-91
2024/04/02 20:59:30;;;;;;;;;;;;;;;;;;6222065;23;19913;-93
2024/04/02 21:01:55;;;;;;;;;;;;;;;;;;6221882;23;19978;-91
2024/04/02 21:04:21;;;;;;;;;;;;;;;;;;6248790;23;19904;-91
2024/04/02 21:06:46;;;;;;;;;;;;;;;;;;6249004;23;19914;-93
2024/04/02 21:09:12;;;;;;;;;;;;;;;;;;6248962;23;19911;-93
2024/04/02 21:11:38;;;;;;;;;;;;;;;;;;6221818;23;19946;-92
2024/04/02 21:14:03;;;;;;;;;;;;;;;;;;6222193;23;19908;-92
2024/04/02 21:16:29;;;;;;;;;;;;;;;;;;6222622;23;20350;-93
2024/04/02 21:18:54;;;;;;;;;;;;;;;;;;6222525;23;20333;-94
2024/04/02 21:21:20;;;;;;;;;;;;;;;;;;6248977;23;19908;-94
2024/04/02 21:23:46;;;;;;;;;;;;;;;;;;6222500;23;19908;-94
2024/04/02 21:26:11;;;;;;;;;;;;;;;;;;6222420;23;19908;-94
2024/04/02 21:28:37;;;;;;;;;;;;;;;;;;6222183;23;19938;-92
2024/04/02 21:31:03;;;;;;;;;;;;;;;;;;6222298;23;19934;-93
2024/04/02 21:33:28;;;;;;;;;;;;;;;;;;6221939;23;19965;-92
2024/04/02 21:35:54;;;;;;;;;;;;;;;;;;6221438;23;19912;-93
2024/04/02 21:38:19;;;;;;;;;;;;;;;;;;6248547;23;19967;-93
2024/04/02 21:40:58;;;;;;;;;;;;;;;;;;6221926;23;19907;-93
2024/04/02 21:43:23;;;;;;;;;;;;;;;;;;6221989;23;19943;-93
2024/04/02 21:46:05;;;;;;;;;;;;;;;;;;6248296;23;19914;-94
2024/04/02 21:48:33;;;;;;;;;;;;;;;;;;6222031;23;19912;-94
2024/04/02 21:50:58;;;;;;;;;;;;;;;;;;6221941;23;19990;-94
2024/04/02 21:53:26;;;;;;;;;;;;;;;;;;6248513;23;19943;-93
2024/04/02 21:55:51;;;;;;;;;;;;;;;;;;6221833;23;19915;-93
2024/04/02 21:58:17;;;;;;;;;;;;;;;;;;6221905;23;19907;-93
2024/04/02 22:00:42;;;;;;;;;;;;;;;;;;6221751;23;19931;-93
2024/04/02 22:03:09;;;;;;;;;;;;;;;;;;6221588;23;19915;-94
2024/04/02 22:05:34;;;;;;;;;;;;;;;;;;6248213;23;19907;-92
2024/04/02 22:07:59;;;;;;;;;;;;;;;;;;6221851;23;19918;-93
2024/04/02 22:10:26;;;;;;;;;;;;;;;;;;6221704;23;20410;-93
2024/04/02 22:12:52;;;;;;;;;;;;;;;;;;6221684;23;19914;-94
2024/04/02 22:15:17;;;;;;;;;;;;;;;;;;6221359;23;19907;-94
2024/04/02 22:17:42;;;;;;;;;;;;;;;;;;6221590;23;19907;-94
2024/04/02 22:20:11;;;;;;;;;;;;;;;;;;6222182;23;19995;-94
2024/04/02 22:22:37;;;;;;;;;;;;;;;;;;6248149;23;20235;-91
2024/04/02 22:25:03;;;;;;;;;;;;;;;;;;6248268;23;19907;-93
2024/04/02 22:27:29;;;;;;;;;;;;;;;;;;6248171;23;19908;-93
2024/04/02 22:29:54;;;;;;;;;;;;;;;;;;6247762;23;19914;-94
2024/04/02 22:32:19;;;;;;;;;;;;;;;;;;6222007;23;20230;-90
2024/04/02 22:34:45;;;;;;;;;;;;;;;;;;6248131;23;19913;-94
